Latest Weather Observations for Geelong Racecourse

IDV60801

Issued at 9:02 am EDT Sunday 29 March 2015 (issued every 30 minutes, with the page automatically refreshed every 10 minutes)

About weather observations | Map of weather stations | Latest weather observations for VIC | Other Formats
Station Details ID: 087184 Name: GEELONG RACECOURSE Lat: -38.17 Lon: 144.38 Height: 12.9 m
Data from the previous 72 hours. | See also: Recent months at Geelong Racecourse
Date/Time
EDT
Temp
°C
App
Temp
°C
Dew
Point
Rel
Hum
%
Delta-T
°C
Wind Press
QNH
hPa
Press
MSL
hPa
Rain
since 9 am
mm
Dir
 
Spd
km/h
Gust
km/h
Spd
kts
Gust
kts
29/09:00am 10.4 10.3 9.3 93 0.5 CALM 0 0 0 0 1022.9 1022.9 0.0
29/08:30am 8.6 7.6 7.5 93 0.5 WNW 2 4 1 2 1022.9 1022.9 0.0
29/08:00am 8.3 7.3 7.2 93 0.5 NW 2 6 1 3 1022.4 1022.4 0.0
29/07:30am 8.2 6.2 7.1 93 0.5 NW 7 13 4 7 1022.0 1022.0 0.0
29/07:00am 8.0 6.5 6.9 93 0.5 WNW 4 4 2 2 1021.9 1021.9 0.0
29/06:30am 7.8 6.3 6.7 93 0.5 WNW 4 6 2 3 1021.7 1021.7 0.0
29/06:00am 8.4 6.6 7.3 93 0.5 WNW 6 7 3 4 1021.3 1021.3 0.0
29/05:30am 8.8 6.9 7.7 93 0.5 NW 7 11 4 6 1020.9 1020.9 0.0
29/05:00am 7.7 6.2 6.6 93 0.5 WNW 4 6 2 3 1020.7 1020.7 0.0
29/04:30am 8.0 6.9 6.9 93 0.5 WNW 2 2 1 1 1020.5 1020.5 0.0
29/04:00am 8.8 7.9 7.7 93 0.5 NW 2 4 1 2 1020.5 1020.5 0.0
29/03:30am 9.3 7.7 8.2 93 0.5 NW 6 6 3 3 1020.7 1020.7 0.0
29/03:00am 9.4 8.2 8.2 92 0.6 NW 4 6 2 3 1021.0 1021.0 0.0
29/02:30am 9.8 8.7 8.6 92 0.6 NW 4 6 2 3 1021.4 1021.4 0.0
29/02:00am 10.2 9.2 9.0 92 0.6 NW 4 6 2 3 1021.7 1021.7 0.0
29/01:30am 10.2 9.2 9.0 92 0.6 NW 4 4 2 2 1021.9 1021.9 0.0
29/01:00am 9.9 8.5 8.7 92 0.6 WNW 6 7 3 4 1022.2 1022.2 0.0
29/12:30am 10.5 9.6 9.3 92 0.6 WNW 4 6 2 3 1022.4 1022.4 0.0
29/12:00am 10.6 9.7 9.2 91 0.7 NW 4 4 2 2 1022.6 1022.6 0.0
 
Date/Time
EDT
Temp
°C
App
Temp
°C
Dew
Point
Rel
Hum
%
Delta-T
°C
Wind Press
QNH
hPa
Press
MSL
hPa
Rain
since 9 am
mm
Dir
 
Spd
km/h
Gust
km/h
Spd
kts
Gust
kts
28/11:30pm 11.2 10.3 9.3 88 0.9 NW 4 6 2 3 1022.7 1022.7 0.0
28/11:00pm 11.2 10.3 9.3 88 0.9 WNW 4 4 2 2 1022.7 1022.7 0.0
28/10:30pm 11.5 10.6 9.2 86 1.2 WNW 4 4 2 2 1022.8 1022.8 0.0
28/10:00pm 11.7 11.5 8.9 83 1.4 CALM 0 0 0 0 1022.8 1022.8 0.0
28/09:30pm 12.1 11.5 9.1 82 1.5 SSW 2 2 1 1 1022.7 1022.7 0.0
28/09:00pm 12.8 12.0 8.3 74 2.2 SSW 2 2 1 1 1022.5 1022.5 0.0
28/08:30pm 13.3 12.5 8.2 71 2.5 SSW 2 2 1 1 1022.4 1022.4 0.0
28/08:00pm 14.2 13.1 8.4 68 2.9 SSW 4 4 2 2 1022.3 1022.3 0.0
28/07:30pm 15.3 14.2 8.5 64 3.4 SSW 4 6 2 3 1022.2 1022.2 0.0
28/07:00pm 16.5 14.1 8.7 60 4.0 SW 11 15 6 8 1022.1 1022.1 0.0
28/06:30pm 17.4 14.6 8.5 56 4.6 SSW 13 17 7 9 1021.9 1021.9 0.0
28/06:00pm 18.3 15.5 8.6 53 5.0 SSW 13 19 7 10 1022.0 1022.0 0.0
28/05:30pm 18.4 15.9 8.4 52 5.2 WSW 11 19 6 10 1022.2 1022.2 0.0
28/05:00pm 18.6 15.8 8.6 52 5.2 SW 13 20 7 11 1022.3 1022.3 0.0
28/04:30pm 19.2 16.5 9.1 52 5.3 SW 13 20 7 11 1022.6 1022.6 0.0
28/04:00pm 18.9 17.3 8.6 51 5.3 W 7 15 4 8 1022.9 1022.9 0.0
28/03:30pm 18.2 15.8 8.7 54 4.9 WNW 11 19 6 10 1023.3 1023.3 0.0
28/03:00pm 17.4 14.9 8.0 54 4.8 WNW 11 19 6 10 1023.5 1023.5 0.0
28/02:30pm 17.5 15.4 8.1 54 4.8 W 9 15 5 8 1023.7 1023.7 0.0
28/02:00pm 17.6 15.4 7.9 53 4.9 W 9 13 5 7 1024.2 1024.2 0.0
28/01:30pm 17.1 14.9 7.7 54 4.7 WNW 9 17 5 9 1024.5 1024.5 0.0
28/01:00pm 16.6 14.4 7.8 56 4.4 NW 9 15 5 8 1024.9 1024.9 0.0
28/12:30pm 16.6 14.1 8.3 58 4.2 WSW 11 17 6 9 1025.2 1025.2 0.0
28/12:00pm 16.6 14.5 8.1 57 4.3 W 9 15 5 8 1025.5 1025.5 0.0
28/11:30am 16.0 13.6 8.5 61 3.8 WNW 11 15 6 8 1025.8 1025.8 0.0
28/11:00am 15.9 13.6 9.1 64 3.5 WNW 11 17 6 9 1025.8 1025.8 0.0
28/10:30am 15.5 13.5 10.3 71 2.7 WNW 11 17 6 9 1025.8 1025.8 0.0
28/10:00am 14.6 13.1 10.4 76 2.2 WNW 9 15 5 8 1026.1 1026.1 0.0
28/09:30am 14.3 12.7 10.1 76 2.2 WNW 9 13 5 7 1025.9 1025.9 0.0
28/09:00am 13.5 11.9 10.1 80 1.7 WNW 9 13 5 7 1025.7 1025.7 0.0
28/08:30am 13.0 10.8 9.4 79 1.8 W 11 17 6 9 1025.5 1025.5 -
28/08:00am 12.5 11.2 9.3 81 1.6 W 6 11 3 6 1025.3 1025.3 -
28/07:30am 12.3 10.8 9.3 82 1.5 WNW 7 15 4 8 1024.9 1024.9 -
28/07:00am 12.3 11.1 9.5 83 1.4 WNW 6 9 3 5 1024.7 1024.7 -
28/06:30am 12.3 10.1 9.5 83 1.4 WNW 11 15 6 8 1024.7 1024.7 -
28/06:00am 12.6 10.8 9.4 81 1.6 W 9 13 5 7 1024.6 1024.6 -
28/05:30am 12.4 11.0 9.4 82 1.5 WNW 7 11 4 6 1024.6 1024.6 -
28/05:00am 12.5 11.0 9.1 80 1.7 W 7 9 4 5 1024.4 1024.4 -
28/04:30am 12.7 11.4 9.3 80 1.7 W 6 9 3 5 1024.4 1024.4 -
28/04:00am 12.9 11.1 9.4 79 1.8 W 9 13 5 7 1024.3 1024.3 -
28/03:30am 12.9 10.3 9.2 78 1.9 WSW 13 20 7 11 1024.5 1024.5 -
28/03:00am 13.2 10.9 9.1 76 2.1 WSW 11 17 6 9 1024.6 1024.6 0.0
28/02:30am 13.3 11.0 9.0 75 2.2 W 11 19 6 10 1024.6 1024.6 -
28/02:00am 13.4 10.6 8.7 73 2.3 WSW 13 19 7 10 1024.7 1024.7 -
28/01:30am 13.3 11.4 9.2 76 2.1 W 9 13 5 7 1024.8 1024.8 -
28/01:00am 13.4 11.2 9.3 76 2.1 W 11 17 6 9 1025.0 1025.0 -
28/12:30am 13.3 11.1 9.2 76 2.1 W 11 17 6 9 1025.0 1025.0 -
28/12:00am 13.4 11.2 9.5 77 2.0 W 11 15 6 8 1025.0 1025.0 -
 
Date/Time
EDT
Temp
°C
App
Temp
°C
Dew
Point
Rel
Hum
%
Delta-T
°C
Wind Press
QNH
hPa
Press
MSL
hPa
Rain
since 9 am
mm
Dir
 
Spd
km/h
Gust
km/h
Spd
kts
Gust
kts
27/11:30pm 13.6 11.3 9.1 74 2.3 W 11 19 6 10 1025.2 1025.2 -
27/11:00pm 13.8 11.4 8.8 72 2.5 WSW 11 17 6 9 1025.4 1025.4 -
27/10:30pm 14.0 11.2 8.6 70 2.7 WSW 13 19 7 10 1025.4 1025.4 -
27/10:00pm 14.2 12.1 8.4 68 2.9 WSW 9 13 5 7 1025.3 1025.3 -
27/09:30pm 14.3 11.4 8.0 66 3.1 W 13 20 7 11 1025.0 1025.0 -
27/09:00pm 14.6 12.0 7.9 64 3.3 WSW 11 17 6 9 1025.0 1025.0 -
27/08:30pm 14.9 12.2 7.5 61 3.7 WSW 11 15 6 8 1024.7 1024.7 -
27/08:00pm 15.1 12.8 7.6 61 3.7 SW 9 15 5 8 1024.4 1024.4 -
27/07:30pm 15.7 13.2 6.4 54 4.5 WSW 9 17 5 9 1023.9 1023.9 -
27/07:00pm 16.0 13.1 6.7 54 4.5 SW 11 17 6 9 1023.8 1023.8 -
27/06:30pm 15.9 12.6 7.9 59 4.0 SSW 15 24 8 13 1023.7 1023.7 -
27/06:00pm 16.6 12.6 6.7 52 4.9 WSW 17 24 9 13 1023.4 1023.4 -
27/05:30pm 17.0 14.0 7.6 54 4.7 SW 13 20 7 11 1023.2 1023.2 -
27/05:00pm 16.4 12.6 7.6 56 4.4 SSW 17 22 9 12 1023.2 1023.2 -
27/04:30pm 17.2 13.7 7.3 52 5.0 SW 15 20 8 11 1023.1 1023.1 -
27/04:00pm 16.6 12.0 6.7 52 4.9 WSW 20 28 11 15 1023.2 1023.2 -
27/03:30pm 17.1 12.7 7.2 52 4.9 WSW 20 33 11 18 1023.1 1023.1 -
27/03:00pm 16.6 11.7 7.0 53 4.7 WSW 22 39 12 21 1023.2 1023.2 0.0
27/02:30pm 16.9 12.5 7.5 54 4.7 W 20 33 11 18 1023.4 1023.4 0.0
27/02:00pm 16.8 11.9 6.9 52 4.9 WSW 22 32 12 17 1023.7 1023.7 0.0
27/01:30pm 16.5 10.5 7.2 54 4.6 WSW 28 43 15 23 1023.9 1023.9 0.0
27/01:00pm 16.1 10.3 8.1 59 4.0 W 28 41 15 22 1023.9 1023.9 0.0
27/12:30pm 16.8 10.1 7.2 53 4.8 WSW 32 43 17 23 1023.9 1023.9 0.0
27/12:00pm 16.3 11.9 8.8 61 3.8 WSW 22 32 12 17 1023.9 1023.9 0.0
27/11:30am 16.1 11.3 8.8 62 3.7 WSW 24 39 13 21 1023.7 1023.7 0.0
27/11:00am 15.0 10.8 9.6 70 2.8 WSW 22 33 12 18 1023.7 1023.7 0.0
27/10:30am 14.6 10.9 10.2 75 2.3 W 20 30 11 16 1023.5 1023.5 0.0
27/10:00am 14.0 9.7 10.6 80 1.8 W 24 35 13 19 1023.1 1023.1 0.0
27/09:30am 14.1 10.2 10.9 81 1.7 W 22 30 12 16 1022.7 1022.7 0.0
27/09:00am 13.3 9.8 11.0 86 1.2 W 20 30 11 16 1022.6 1022.6 2.2
27/08:30am 12.4 9.4 10.6 89 0.9 W 17 24 9 13 1022.3 1022.3 2.2
27/08:00am 11.9 8.4 10.3 90 0.8 W 19 30 10 16 1021.7 1021.7 2.2
27/07:30am 12.0 8.5 10.2 89 0.9 W 19 24 10 13 1021.3 1021.3 2.0
27/07:00am 12.2 8.7 10.9 92 0.7 W 20 30 11 16 1020.7 1020.7 2.0
27/06:30am 12.1 9.1 10.8 92 0.7 W 17 30 9 16 1020.6 1020.6 2.0
27/06:00am 12.4 9.0 11.1 92 0.7 W 20 32 11 17 1020.2 1020.2 2.0
27/05:30am 12.0 9.0 10.7 92 0.7 WNW 17 28 9 15 1019.9 1019.9 2.0
27/05:00am 12.0 8.6 10.7 92 0.7 WNW 19 28 10 15 1019.6 1019.6 2.0
27/04:30am 12.2 8.9 10.9 92 0.7 WNW 19 30 10 16 1019.5 1019.5 2.0
27/04:00am 12.1 9.5 10.8 92 0.7 W 15 26 8 14 1019.4 1019.4 2.0
27/03:30am 12.2 9.7 10.9 92 0.7 WNW 15 20 8 11 1019.3 1019.3 2.0
27/03:00am 12.3 9.4 11.0 92 0.7 WNW 17 24 9 13 1019.4 1019.4 2.0
27/02:30am 12.5 10.0 11.2 92 0.7 WNW 15 24 8 13 1019.2 1019.2 2.0
27/02:00am 12.4 9.5 11.1 92 0.7 WNW 17 24 9 13 1018.9 1018.9 2.0
27/01:30am 12.7 9.3 11.4 92 0.7 W 20 32 11 17 1018.7 1018.7 2.0
27/01:00am 12.7 9.3 11.4 92 0.7 WNW 20 33 11 18 1018.5 1018.5 2.0
27/12:30am 12.4 9.5 11.1 92 0.7 WNW 17 28 9 15 1018.5 1018.5 2.0
27/12:00am 12.4 9.5 11.1 92 0.7 WNW 17 30 9 16 1018.3 1018.3 2.0
 
Date/Time
EDT
Temp
°C
App
Temp
°C
Dew
Point
Rel
Hum
%
Delta-T
°C
Wind Press
QNH
hPa
Press
MSL
hPa
Rain
since 9 am
mm
Dir
 
Spd
km/h
Gust
km/h
Spd
kts
Gust
kts
26/11:30pm 12.4 9.0 11.1 92 0.7 WNW 20 32 11 17 1018.2 1018.2 2.0
26/11:00pm 12.4 9.5 11.1 92 0.7 WNW 17 28 9 15 1018.1 1018.1 2.0
26/10:30pm 12.6 8.8 11.0 90 0.8 WNW 22 37 12 20 1018.0 1018.0 2.0
26/10:00pm 12.7 9.4 10.9 89 0.9 WNW 19 28 10 15 1017.8 1017.8 2.0
26/09:30pm 12.9 9.1 11.1 89 0.9 WNW 22 35 12 19 1017.5 1017.5 2.0
26/09:00pm 12.9 10.2 11.6 92 0.7 WNW 17 24 9 13 1017.3 1017.3 2.0
26/08:30pm 12.6 8.8 11.3 92 0.7 WNW 22 35 12 19 1016.6 1016.6 2.0
26/08:00pm 12.9 8.4 11.3 90 0.8 WNW 26 43 14 23 1016.3 1016.3 2.0
26/07:30pm 12.9 7.9 11.0 88 1.0 WNW 28 44 15 24 1015.9 1015.9 2.0
26/07:14pm 12.9 7.6 11.1 89 0.9 WNW 30 54 16 29 1015.5 1015.5 2.0
26/07:00pm 13.0 8.2 11.7 92 0.7 WNW 28 44 15 24 1015.5 1015.5 2.0
26/06:30pm 12.6 6.4 11.3 92 0.7 WNW 35 56 19 30 1014.8 1014.8 2.0
26/06:03pm 13.4 6.9 10.4 82 1.6 NW 35 59 19 32 1014.3 1014.3 1.8
26/06:00pm 13.5 7.0 10.5 82 1.6 NW 35 50 19 27 1014.4 1014.4 1.8
26/05:41pm 13.1 7.2 10.3 83 1.4 NW 32 52 17 28 1014.2 1014.2 1.8
26/05:30pm 12.6 6.8 10.8 89 0.9 NW 32 44 17 24 1014.4 1014.4 1.8
26/05:00pm 12.8 7.3 9.1 78 1.9 NW 28 46 15 25 1014.6 1014.6 1.4
26/04:30pm 12.2 6.5 8.5 78 1.8 NW 28 54 15 29 1015.0 1015.0 1.0
26/04:00pm 13.8 5.9 6.2 60 3.6 WNW 37 57 20 31 1015.1 1015.1 0.0
26/03:35pm 15.8 8.7 5.4 50 5.0 NW 32 52 17 28 1015.0 1015.0 0.0
26/03:30pm 15.6 7.7 4.6 48 5.1 NW 35 52 19 28 1015.0 1015.0 0.0
26/03:00pm 16.8 7.9 2.8 39 6.4 NW 39 61 21 33 1015.0 1015.0 0.0
26/02:33pm 16.4 7.5 2.8 40 6.2 NW 39 57 21 31 1015.2 1015.2 0.0
26/02:30pm 16.4 7.8 2.4 39 6.3 NW 37 54 20 29 1015.2 1015.2 0.0
26/02:04pm 16.9 9.5 2.1 37 6.6 NW 30 48 16 26 1015.6 1015.6 0.0
26/02:00pm 16.6 8.9 2.2 38 6.5 NW 32 48 17 26 1015.8 1015.8 0.0
26/01:30pm 16.8 10.0 3.1 40 6.3 WNW 28 48 15 26 1016.3 1016.3 0.0
26/01:00pm 16.1 8.8 2.2 39 6.2 NW 30 50 16 27 1016.5 1016.5 0.0
26/12:30pm 15.6 7.8 2.7 42 5.8 NW 33 52 18 28 1016.5 1016.5 0.0
26/12:05pm 15.4 8.7 3.5 45 5.4 WNW 28 46 15 25 1016.9 1016.9 0.0
26/12:00pm 15.1 8.0 3.6 46 5.2 WNW 30 48 16 26 1017.0 1017.0 0.0
26/11:55am 15.5 8.8 3.6 45 5.5 WNW 28 48 15 26 1016.9 1016.9 0.0
26/11:30am 15.2 8.6 4.3 48 5.1 WNW 28 41 15 22 1017.1 1017.1 0.0
26/11:00am 14.6 8.9 4.9 52 4.5 WNW 24 37 13 20 1017.2 1017.2 0.0
26/10:30am 13.3 7.3 5.2 58 3.8 WNW 26 41 14 22 1017.1 1017.1 0.0
26/10:00am 12.7 6.3 5.4 61 3.4 WNW 28 41 15 22 1017.2 1017.2 0.0
26/09:30am 12.6 8.0 5.5 62 3.3 WNW 19 30 10 16 1017.1 1017.1 0.0

Other Formats:

Comma delimited format used in spreadsheet applications
http://www.bom.gov.au/fwo/IDV60801/IDV60801.94857.axf

JavaScript Object Notation format (JSON) in row-major order
http://www.bom.gov.au/fwo/IDV60801/IDV60801.94857.json